createdAt,value
2023-04-22T00:04:34.423Z,5.85
2023-04-22T00:09:36.622Z,5.74
2023-04-22T00:14:38.976Z,5.69
2023-04-22T00:19:41.767Z,5.66
2023-04-22T00:24:43.920Z,5.61
2023-04-22T00:29:45.753Z,5.61
2023-04-22T00:34:47.394Z,5.51
2023-04-22T00:39:49.098Z,5.37
2023-04-22T00:44:52.144Z,5.29
2023-04-22T00:49:55.001Z,5.22
2023-04-22T00:54:57.233Z,5.16
2023-04-22T00:59:59.294Z,5.13
2023-04-22T01:05:02.128Z,5.07
2023-04-22T01:10:04.713Z,4.99
2023-04-22T01:15:07.587Z,4.92
2023-04-22T01:20:10.566Z,4.87
2023-04-22T01:25:13.093Z,4.81
2023-04-22T01:30:15.733Z,4.74
2023-04-22T01:35:17.520Z,4.66
2023-04-22T01:40:22.792Z,4.61
2023-04-22T01:45:24.755Z,4.61
2023-04-22T01:50:26.553Z,4.63
2023-04-22T01:55:28.472Z,4.68
2023-04-22T02:00:30.293Z,4.69
2023-04-22T02:05:32.663Z,4.69
2023-04-22T02:10:34.513Z,4.66
2023-04-22T02:15:36.332Z,4.67
2023-04-22T02:20:38.367Z,4.72
2023-04-22T02:25:41.032Z,4.72
2023-04-22T02:30:42.975Z,4.65
2023-04-22T02:35:44.916Z,4.56
2023-04-22T02:40:51.021Z,4.49
2023-04-22T02:45:52.767Z,4.40
2023-04-22T02:50:54.615Z,4.44
2023-04-22T02:55:58.352Z,4.45
2023-04-22T03:01:01.173Z,4.40
2023-04-22T03:06:02.961Z,4.39
2023-04-22T03:11:05.037Z,4.29
2023-04-22T03:16:07.527Z,4.21
2023-04-22T03:21:09.321Z,4.18
2023-04-22T03:26:11.276Z,4.12
2023-04-22T03:31:16.621Z,4.03
2023-04-22T03:36:19.512Z,3.95
2023-04-22T03:41:21.421Z,3.90
2023-04-22T03:46:23.832Z,3.87
2023-04-22T03:51:32.835Z,3.87
2023-04-22T03:56:36.877Z,3.89
2023-04-22T04:07:13.833Z,4.06
2023-04-22T04:12:15.795Z,4.04
2023-04-22T04:17:18.865Z,4.05
2023-04-22T04:22:21.380Z,4.13
2023-04-22T04:27:29.855Z,4.43
2023-04-22T04:32:34.445Z,4.84
2023-04-22T04:37:40.467Z,5.25
2023-04-22T04:42:44.377Z,5.76
2023-04-22T04:47:55.464Z,6.39
2023-04-22T04:53:04.092Z,7.08
2023-04-22T04:58:20.832Z,7.74
2023-04-22T05:03:25.752Z,8.33
2023-04-22T05:08:29.427Z,8.90
2023-04-22T05:13:37.663Z,9.48
2023-04-22T05:18:40.814Z,9.75
2023-04-22T05:23:44.125Z,9.98
2023-04-22T05:28:46.102Z,10.21
2023-04-22T05:33:48.584Z,10.41
2023-04-22T05:38:50.805Z,10.51
2023-04-22T05:43:52.612Z,10.66
2023-04-22T05:48:55.893Z,10.74
2023-04-22T05:54:18.071Z,10.93
2023-04-22T05:59:21.825Z,11.19
2023-04-22T06:04:24.789Z,11.53
2023-04-22T06:09:26.874Z,11.96
2023-04-22T06:14:28.646Z,12.26
2023-04-22T06:19:30.551Z,12.47
2023-04-22T06:24:32.680Z,12.65
2023-04-22T06:29:34.646Z,12.93
2023-04-22T06:34:38.704Z,13.27
2023-04-22T06:39:41.366Z,13.56
2023-04-22T06:45:00.664Z,13.76
2023-04-22T06:50:35.522Z,14.00
2023-04-22T06:55:37.395Z,14.11
2023-04-22T07:00:39.394Z,14.51
2023-04-22T07:05:41.355Z,15.06
2023-04-22T07:10:43.761Z,15.85
2023-04-22T07:16:08.716Z,16.64
2023-04-22T07:21:10.491Z,17.29
2023-04-22T07:26:12.575Z,17.87
2023-04-22T07:31:14.398Z,18.38
2023-04-22T07:36:16.301Z,18.83
2023-04-22T07:41:37.080Z,19.25
2023-04-22T07:46:38.885Z,19.59
2023-04-22T07:51:41.202Z,19.86
2023-04-22T07:56:42.945Z,19.99
2023-04-22T08:01:46.673Z,20.07
2023-04-22T08:06:48.372Z,20.29
2023-04-22T08:11:50.114Z,20.59
2023-04-22T08:16:52.618Z,20.95
2023-04-22T08:21:54.335Z,20.97
2023-04-22T08:26:56.740Z,20.94
2023-04-22T08:31:58.429Z,21.22
2023-04-22T08:37:00.184Z,21.48
2023-04-22T08:42:02.287Z,21.82
2023-04-22T08:47:05.064Z,22.14
2023-04-22T08:52:10.706Z,22.04
2023-04-22T08:57:15.192Z,22.05
2023-04-22T09:02:20.696Z,22.32
2023-04-22T09:07:25.213Z,22.28
2023-04-22T09:12:27.606Z,22.47
2023-04-22T09:17:33.898Z,22.65
2023-04-22T09:22:43.249Z,22.95
2023-04-22T09:27:52.460Z,23.13
2023-04-22T09:33:02.408Z,23.26
2023-04-22T09:38:08.252Z,23.52
2023-04-22T09:43:11.556Z,23.70
2023-04-22T09:48:15.657Z,23.77
2023-04-22T09:53:19.874Z,23.52
2023-04-22T09:58:27.916Z,23.53
2023-04-22T10:03:30.050Z,23.73
2023-04-22T10:08:33.513Z,24.10
2023-04-22T10:13:36.472Z,24.18
2023-04-22T10:18:39.957Z,24.31
2023-04-22T10:23:47.910Z,24.46
2023-04-22T10:28:51.087Z,24.66
2023-04-22T10:34:11.330Z,24.65
2023-04-22T10:39:16.716Z,24.58
2023-04-22T10:44:22.118Z,24.72
2023-04-22T10:49:26.058Z,24.88
2023-04-22T10:54:30.591Z,25.14
2023-04-22T10:59:35.746Z,25.39
2023-04-22T11:04:38.798Z,25.30
2023-04-22T11:09:41.680Z,25.30
2023-04-22T11:14:43.846Z,25.18
2023-04-22T11:19:47.237Z,25.23
2023-04-22T11:25:01.472Z,25.53
2023-04-22T11:30:13.022Z,25.64
2023-04-22T11:35:15.941Z,25.70
2023-04-22T11:40:29.872Z,25.81
2023-04-22T11:45:34.867Z,25.97
2023-04-22T11:50:42.285Z,26.19
2023-04-22T11:55:46.839Z,26.42
2023-04-22T12:00:50.880Z,26.46
2023-04-22T12:05:53.708Z,26.44
2023-04-22T12:10:57.735Z,26.58
2023-04-22T12:16:02.087Z,26.44
2023-04-22T12:21:07.069Z,26.67
2023-04-22T12:26:09.157Z,27.02
2023-04-22T12:31:12.811Z,27.11
2023-04-22T12:36:14.665Z,27.53
2023-04-22T12:41:16.595Z,27.28
2023-04-22T12:46:18.426Z,27.49
2023-04-22T12:51:20.166Z,27.75
2023-04-22T12:56:21.974Z,28.13
2023-04-22T13:01:23.796Z,28.51
2023-04-22T13:06:25.535Z,28.76
2023-04-22T13:11:27.466Z,28.26
2023-04-22T13:16:29.308Z,28.36
2023-04-22T13:21:31.953Z,28.03
2023-04-22T13:26:33.717Z,27.90
2023-04-22T13:31:35.654Z,27.80
2023-04-22T13:36:37.507Z,27.89
2023-04-22T13:41:39.218Z,27.97
2023-04-22T13:46:42.073Z,28.41
2023-04-22T13:51:43.768Z,28.73
2023-04-22T13:56:45.785Z,29.41
2023-04-22T14:01:47.509Z,30.08
2023-04-22T14:06:50.476Z,30.33
2023-04-22T14:11:52.328Z,30.11
2023-04-22T14:16:54.433Z,30.25
2023-04-22T14:21:56.265Z,30.54
2023-04-22T14:27:04.109Z,30.86
2023-04-22T14:32:06.033Z,30.75
2023-04-22T14:37:07.767Z,30.69
2023-04-22T14:42:10.628Z,30.07
2023-04-22T14:47:12.356Z,30.31
2023-04-22T14:52:14.134Z,30.68
2023-04-22T14:57:15.841Z,30.74
2023-04-22T15:02:17.715Z,30.60
2023-04-22T15:07:19.634Z,30.57
2023-04-22T15:12:21.411Z,29.80
2023-04-22T15:17:24.143Z,29.64
2023-04-22T15:22:25.915Z,29.24
2023-04-22T15:27:27.642Z,29.11
2023-04-22T15:32:29.379Z,28.26
2023-04-22T15:37:31.058Z,27.82
2023-04-22T15:42:32.733Z,28.26
2023-04-22T15:47:36.423Z,28.54
2023-04-22T15:52:38.841Z,27.99
2023-04-22T15:57:40.736Z,27.81
2023-04-22T16:02:43.789Z,27.86
2023-04-22T16:07:46.407Z,28.24
2023-04-22T16:12:49.347Z,28.73
2023-04-22T16:17:51.327Z,28.84
2023-04-22T16:22:53.186Z,28.67
2023-04-22T16:27:55.224Z,28.65
2023-04-22T16:32:57.031Z,28.72
2023-04-22T16:37:58.836Z,28.81
2023-04-22T16:43:33.899Z,28.86
2023-04-22T16:48:36.019Z,28.89
2023-04-22T16:53:37.831Z,28.76
2023-04-22T16:58:39.575Z,28.50
2023-04-22T17:03:41.863Z,28.13
2023-04-22T17:08:43.882Z,27.47
2023-04-22T17:13:45.707Z,26.54
2023-04-22T17:18:47.436Z,25.61
2023-04-22T17:23:49.963Z,24.63
2023-04-22T17:28:52.060Z,23.74
2023-04-22T17:33:53.797Z,22.88
2023-04-22T17:38:55.527Z,22.07
2023-04-22T17:43:59.008Z,21.25
2023-04-22T17:49:01.272Z,20.47
2023-04-22T17:54:05.208Z,19.72
2023-04-22T17:59:12.444Z,18.98
2023-04-22T18:04:14.494Z,18.40
2023-04-22T18:09:16.442Z,17.90
2023-04-22T18:14:20.859Z,17.32
2023-04-22T18:19:22.768Z,16.75
2023-04-22T18:24:24.748Z,16.27
2023-04-22T18:29:26.453Z,15.83
2023-04-22T18:34:29.153Z,15.42
2023-04-22T18:39:31.184Z,15.03
2023-04-22T18:44:32.861Z,14.63
2023-04-22T18:49:34.584Z,14.21
2023-04-22T18:54:36.298Z,13.85
2023-04-22T18:59:38.199Z,13.53
2023-04-22T19:04:40.391Z,13.24
2023-04-22T19:09:42.434Z,12.98
2023-04-22T19:14:44.320Z,12.76
2023-04-22T19:19:46.590Z,12.45
2023-04-22T19:24:48.348Z,12.11
2023-04-22T19:29:53.422Z,11.88
2023-04-22T19:34:55.396Z,11.71
2023-04-22T19:39:57.651Z,11.56
2023-04-22T19:44:59.559Z,11.41
2023-04-22T19:50:02.694Z,11.30
2023-04-22T19:55:09.329Z,11.37
2023-04-22T20:00:11.840Z,11.50
2023-04-22T20:05:18.519Z,11.44
2023-04-22T20:10:22.716Z,11.28
2023-04-22T20:15:24.710Z,11.14
2023-04-22T20:20:27.612Z,11.04
2023-04-22T20:25:30.991Z,10.94
2023-04-22T20:30:33.337Z,10.87
2023-04-22T20:35:38.240Z,10.86
2023-04-22T20:40:41.144Z,10.83
2023-04-22T20:45:43.295Z,10.76
2023-04-22T20:50:46.147Z,10.69
2023-04-22T20:55:47.859Z,10.62
2023-04-22T21:00:49.660Z,10.57
2023-04-22T21:05:52.392Z,10.52
2023-04-22T21:11:00.298Z,10.39
2023-04-22T21:16:11.755Z,10.16
2023-04-22T21:21:16.156Z,9.87
2023-04-22T21:26:18.743Z,9.64
2023-04-22T21:31:22.006Z,9.51
2023-04-22T21:36:25.027Z,9.38
2023-04-22T21:41:27.623Z,9.17
2023-04-22T21:46:29.713Z,8.94
2023-04-22T21:51:34.375Z,8.69
2023-04-22T21:56:36.414Z,8.47
2023-04-22T22:01:38.173Z,8.29
2023-04-22T22:06:39.928Z,8.14
2023-04-22T22:11:41.719Z,8.03
2023-04-22T22:16:43.895Z,7.97
2023-04-22T22:21:46.295Z,7.93
2023-04-22T22:26:48.060Z,7.90
2023-04-22T22:31:50.002Z,7.88
2023-04-22T22:36:51.759Z,7.84
2023-04-22T22:41:55.417Z,7.79
2023-04-22T22:46:57.203Z,7.84
2023-04-22T22:52:01.544Z,7.88
2023-04-22T22:57:05.691Z,7.81
2023-04-22T23:02:07.535Z,7.72
2023-04-22T23:07:10.401Z,7.62
2023-04-22T23:12:32.132Z,7.57
2023-04-22T23:17:36.227Z,7.64
2023-04-22T23:22:40.686Z,7.70
2023-04-22T23:27:43.303Z,7.61
2023-04-22T23:32:49.756Z,7.53
2023-04-22T23:37:54.720Z,7.55
2023-04-22T23:42:56.992Z,7.65
2023-04-22T23:48:01.195Z,7.73
2023-04-22T23:53:02.966Z,7.81
2023-04-22T23:58:04.923Z,7.91
